createdAt,value
2022-10-17T00:01:14.604Z,13.00
2022-10-17T00:03:42.975Z,13.00
2022-10-17T00:06:14.564Z,13.00
2022-10-17T00:08:44.424Z,13.00
2022-10-17T00:11:18.322Z,13.10
2022-10-17T00:13:47.056Z,13.10
2022-10-17T00:16:19.727Z,13.10
2022-10-17T00:18:47.952Z,13.00
2022-10-17T00:21:20.323Z,12.90
2022-10-17T00:23:49.201Z,12.90
2022-10-17T00:26:18.523Z,12.90
2022-10-17T00:28:48.340Z,12.80
2022-10-17T00:31:20.752Z,12.80
2022-10-17T00:33:50.033Z,12.70
2022-10-17T00:36:19.825Z,12.70
2022-10-17T00:38:51.548Z,12.80
2022-10-17T00:41:22.353Z,12.80
2022-10-17T00:43:52.501Z,12.70
2022-10-17T00:46:23.818Z,12.70
2022-10-17T00:48:55.235Z,12.70
2022-10-17T00:51:30.417Z,12.70
2022-10-17T00:53:58.731Z,12.60
2022-10-17T00:56:27.723Z,12.70
2022-10-17T00:58:56.589Z,12.70
2022-10-17T01:01:26.093Z,12.70
2022-10-17T01:03:54.141Z,12.70
2022-10-17T01:06:22.143Z,12.60
2022-10-17T01:08:50.338Z,12.60
2022-10-17T01:11:33.957Z,12.60
2022-10-17T01:14:07.233Z,12.50
2022-10-17T01:16:43.997Z,12.50
2022-10-17T01:19:35.313Z,12.50
2022-10-17T01:22:09.600Z,12.50
2022-10-17T01:25:02.800Z,12.50
2022-10-17T01:28:06.814Z,12.40
2022-10-17T01:31:03.871Z,12.50
2022-10-17T01:33:42.039Z,12.40
2022-10-17T01:36:13.720Z,12.40
2022-10-17T01:38:48.485Z,12.40
2022-10-17T01:41:26.334Z,12.40
2022-10-17T01:44:00.014Z,12.40
2022-10-17T01:46:35.097Z,12.40
2022-10-17T01:49:05.631Z,12.40
2022-10-17T01:51:38.342Z,12.40
2022-10-17T01:54:12.622Z,12.30
2022-10-17T01:56:42.442Z,12.30
2022-10-17T01:59:14.910Z,12.40
2022-10-17T02:01:47.355Z,12.30
2022-10-17T02:04:16.458Z,12.30
2022-10-17T02:06:44.517Z,12.30
2022-10-17T02:09:20.894Z,12.20
2022-10-17T02:12:00.604Z,12.30
2022-10-17T02:14:38.350Z,12.20
2022-10-17T02:17:20.111Z,12.20
2022-10-17T02:19:56.246Z,12.20
2022-10-17T02:22:35.227Z,12.10
2022-10-17T02:25:11.415Z,12.20
2022-10-17T02:27:46.532Z,12.20
2022-10-17T02:30:23.057Z,12.20
2022-10-17T02:33:00.064Z,12.10
2022-10-17T02:35:33.041Z,12.20
2022-10-17T02:38:02.508Z,12.20
2022-10-17T02:40:32.891Z,12.20
2022-10-17T02:43:02.744Z,12.10
2022-10-17T02:45:36.091Z,12.10
2022-10-17T02:48:09.777Z,12.20
2022-10-17T02:50:49.499Z,12.10
2022-10-17T02:53:25.762Z,12.10
2022-10-17T02:55:59.319Z,12.10
2022-10-17T02:58:33.382Z,12.20
2022-10-17T03:01:02.404Z,12.20
2022-10-17T03:03:33.604Z,12.20
2022-10-17T03:06:01.747Z,12.20
2022-10-17T03:08:29.917Z,12.20
2022-10-17T03:10:58.135Z,12.20
2022-10-17T03:13:26.171Z,12.10
2022-10-17T03:15:54.320Z,12.10
2022-10-17T03:18:22.400Z,12.00
2022-10-17T03:20:52.250Z,12.10
2022-10-17T03:23:20.238Z,12.10
2022-10-17T03:25:48.191Z,12.00
2022-10-17T03:28:16.211Z,12.00
2022-10-17T03:30:44.191Z,12.00
2022-10-17T03:33:12.141Z,12.10
2022-10-17T03:35:40.925Z,12.10
2022-10-17T03:38:10.435Z,12.00
2022-10-17T03:40:38.619Z,12.00
2022-10-17T03:43:06.627Z,12.10
2022-10-17T03:45:34.818Z,12.10
2022-10-17T03:48:02.802Z,12.10
2022-10-17T03:50:31.259Z,12.10
2022-10-17T03:52:59.244Z,12.30
2022-10-17T03:55:28.976Z,12.20
2022-10-17T03:57:56.935Z,12.20
2022-10-17T04:00:24.867Z,12.10
2022-10-17T04:02:52.899Z,12.30
2022-10-17T04:05:20.924Z,12.20
2022-10-17T04:07:50.359Z,12.30
2022-10-17T04:10:18.490Z,12.40
2022-10-17T04:12:47.849Z,12.40
2022-10-17T04:15:15.871Z,12.30
2022-10-17T04:17:43.782Z,12.40
2022-10-17T04:20:12.201Z,12.40
2022-10-17T04:22:40.206Z,12.40
2022-10-17T04:25:08.437Z,12.30
2022-10-17T04:27:36.397Z,12.30
2022-10-17T04:30:06.590Z,12.30
2022-10-17T04:32:38.033Z,12.30
2022-10-17T04:35:06.851Z,12.30
2022-10-17T04:37:35.113Z,12.20
2022-10-17T04:40:03.153Z,12.30
2022-10-17T04:42:32.058Z,12.30
2022-10-17T04:45:00.353Z,12.20
2022-10-17T04:47:29.726Z,12.20
2022-10-17T04:49:57.722Z,12.20
2022-10-17T04:52:26.662Z,12.20
2022-10-17T04:54:54.834Z,12.20
2022-10-17T04:57:23.860Z,12.20
2022-10-17T04:59:52.131Z,12.10
2022-10-17T05:02:20.349Z,12.10
2022-10-17T05:04:50.634Z,12.10
2022-10-17T05:07:19.328Z,12.10
2022-10-17T05:09:47.703Z,12.00
2022-10-17T05:12:16.063Z,12.00
2022-10-17T05:14:44.900Z,12.00
2022-10-17T05:17:12.963Z,11.90
2022-10-17T05:19:41.446Z,11.90
2022-10-17T05:22:11.343Z,11.80
2022-10-17T05:24:39.609Z,11.80
2022-10-17T05:27:07.725Z,11.80
2022-10-17T05:29:36.606Z,11.80
2022-10-17T05:32:06.855Z,12.00
2022-10-17T05:34:35.282Z,12.00
2022-10-17T05:37:05.617Z,11.90
2022-10-17T05:39:35.342Z,11.90
2022-10-17T05:42:03.446Z,11.80
2022-10-17T05:44:31.670Z,11.80
2022-10-17T05:46:59.966Z,11.70
2022-10-17T05:49:46.057Z,11.70
2022-10-17T05:52:17.371Z,11.80
2022-10-17T05:54:46.921Z,11.80
2022-10-17T05:57:14.933Z,11.80
2022-10-17T05:59:42.935Z,11.80
2022-10-17T06:02:12.528Z,11.80
2022-10-17T06:04:45.512Z,11.90
2022-10-17T06:07:13.797Z,11.90
2022-10-17T06:09:42.306Z,11.90
2022-10-17T06:12:11.814Z,11.80
2022-10-17T06:14:39.805Z,11.90
2022-10-17T06:17:12.133Z,11.90
2022-10-17T06:19:44.668Z,11.90
2022-10-17T06:22:13.307Z,12.00
2022-10-17T06:24:42.336Z,12.00
2022-10-17T06:27:12.482Z,12.10
2022-10-17T06:29:41.361Z,12.10
2022-10-17T06:32:12.755Z,12.10
2022-10-17T06:34:43.543Z,12.10
2022-10-17T06:37:11.526Z,12.10
2022-10-17T06:39:39.661Z,12.10
2022-10-17T06:42:08.529Z,12.20
2022-10-17T06:44:40.101Z,12.20
2022-10-17T06:47:08.077Z,12.40
2022-10-17T06:49:36.281Z,12.50
2022-10-17T06:52:04.594Z,12.70
2022-10-17T06:54:33.520Z,12.70
2022-10-17T06:57:01.512Z,12.70
2022-10-17T06:59:30.271Z,12.80
2022-10-17T07:02:02.299Z,12.90
2022-10-17T07:04:30.534Z,12.90
2022-10-17T07:09:32.904Z,13.20
2022-10-17T07:12:01.018Z,13.30
2022-10-17T07:14:32.204Z,13.40
2022-10-17T07:17:02.044Z,13.50
2022-10-17T07:19:30.310Z,13.70
2022-10-17T07:21:58.331Z,13.80
2022-10-17T07:24:26.897Z,13.80
2022-10-17T07:26:54.868Z,14.00
2022-10-17T07:29:23.057Z,14.10
2022-10-17T07:31:52.078Z,14.10
2022-10-17T07:34:21.830Z,14.20
2022-10-17T07:36:50.019Z,14.30
2022-10-17T07:39:18.362Z,14.40
2022-10-17T07:41:47.662Z,14.50
2022-10-17T07:44:15.776Z,14.50
2022-10-17T07:46:43.876Z,14.60
2022-10-17T07:49:11.943Z,14.70
2022-10-17T07:51:41.487Z,14.80
2022-10-17T07:54:09.625Z,14.80
2022-10-17T07:56:37.761Z,15.00
2022-10-17T07:59:08.490Z,15.10
2022-10-17T08:01:38.376Z,15.10
2022-10-17T08:04:06.696Z,15.10
2022-10-17T08:06:35.042Z,15.20
2022-10-17T08:09:04.868Z,15.10
2022-10-17T08:11:32.897Z,15.30
2022-10-17T08:14:00.960Z,15.40
2022-10-17T08:16:28.987Z,15.40
2022-10-17T08:18:57.061Z,15.50
2022-10-17T08:21:25.311Z,15.60
2022-10-17T08:23:53.470Z,15.70
2022-10-17T08:26:22.943Z,15.80
2022-10-17T08:28:51.440Z,15.90
2022-10-17T08:31:20.648Z,15.90
2022-10-17T08:33:49.700Z,15.90
2022-10-17T08:36:19.330Z,16.10
2022-10-17T08:38:52.405Z,16.10
2022-10-17T08:41:40.371Z,16.10
2022-10-17T08:44:20.442Z,16.20
2022-10-17T08:46:50.577Z,16.20
2022-10-17T08:49:39.209Z,16.20
2022-10-17T08:52:16.364Z,16.40
2022-10-17T08:54:47.102Z,16.50
2022-10-17T08:57:18.415Z,16.50
2022-10-17T08:59:52.070Z,16.60
2022-10-17T09:02:47.150Z,16.60
2022-10-17T09:05:30.795Z,16.60
2022-10-17T09:08:09.045Z,16.80
2022-10-17T09:10:51.318Z,17.00
2022-10-17T09:13:32.603Z,17.10
2022-10-17T09:16:31.086Z,17.10
2022-10-17T09:19:04.386Z,17.40
2022-10-17T09:21:41.758Z,17.30
2022-10-17T09:24:16.175Z,17.40
2022-10-17T09:26:46.495Z,17.40
2022-10-17T09:29:22.188Z,17.50
2022-10-17T09:34:33.239Z,17.30
2022-10-17T09:37:02.647Z,17.60
2022-10-17T09:39:32.044Z,17.60
2022-10-17T09:42:02.153Z,17.60
2022-10-17T09:44:34.097Z,17.80
2022-10-17T09:47:22.976Z,17.80
2022-10-17T09:49:51.588Z,17.70
2022-10-17T09:52:21.455Z,17.70
2022-10-17T09:54:51.622Z,17.90
2022-10-17T09:57:21.088Z,17.90
2022-10-17T10:00:01.012Z,18.00
2022-10-17T10:02:30.738Z,18.00
2022-10-17T10:05:04.601Z,18.10
2022-10-17T10:07:36.638Z,18.10
2022-10-17T10:10:07.558Z,18.30
2022-10-17T10:12:37.980Z,18.20
2022-10-17T10:15:32.217Z,18.30
2022-10-17T10:18:00.276Z,18.40
2022-10-17T10:20:34.392Z,18.30
2022-10-17T10:23:07.701Z,18.40
2022-10-17T10:25:36.636Z,18.40
2022-10-17T10:28:12.081Z,18.40
2022-10-17T10:30:41.563Z,18.30
2022-10-17T10:33:13.192Z,18.40
2022-10-17T10:35:41.325Z,18.40
2022-10-17T10:38:12.443Z,18.60
2022-10-17T10:40:47.553Z,18.80
2022-10-17T10:43:24.604Z,18.90
2022-10-17T10:45:54.424Z,18.90
2022-10-17T10:48:24.740Z,19.00
2022-10-17T10:50:56.986Z,18.80
2022-10-17T10:53:43.953Z,18.80
2022-10-17T10:56:17.098Z,19.10
2022-10-17T10:58:53.662Z,19.30
2022-10-17T11:01:29.946Z,19.40
2022-10-17T11:04:19.032Z,19.40
2022-10-17T11:06:48.561Z,19.40
2022-10-17T11:09:30.066Z,19.30
2022-10-17T11:12:06.448Z,19.40
2022-10-17T11:14:45.028Z,19.30
2022-10-17T11:17:22.826Z,19.40
2022-10-17T11:20:00.452Z,19.40
2022-10-17T11:22:32.533Z,19.60
2022-10-17T11:25:06.034Z,19.80
2022-10-17T11:27:35.426Z,19.90
2022-10-17T11:30:07.008Z,19.90
2022-10-17T11:32:41.549Z,20.10
2022-10-17T11:35:20.107Z,20.20
2022-10-17T11:37:52.377Z,20.40
2022-10-17T11:40:27.570Z,20.50
2022-10-17T11:43:00.327Z,20.60
2022-10-17T11:45:32.670Z,20.70
2022-10-17T11:48:06.497Z,20.90
2022-10-17T11:53:28.557Z,21.00
2022-10-17T11:55:59.943Z,21.00
2022-10-17T11:58:40.659Z,21.10
2022-10-17T12:01:16.307Z,21.10
2022-10-17T12:04:08.600Z,21.10
2022-10-17T12:06:49.488Z,21.20
2022-10-17T12:09:25.009Z,21.50
2022-10-17T12:11:56.880Z,21.50
2022-10-17T12:14:43.658Z,21.50
2022-10-17T12:17:35.423Z,21.90
2022-10-17T12:20:36.487Z,22.10
2022-10-17T12:23:27.843Z,21.90
2022-10-17T12:26:01.157Z,21.90
2022-10-17T12:28:33.008Z,21.90
2022-10-17T12:31:05.772Z,21.80
2022-10-17T12:33:36.411Z,21.70
2022-10-17T12:36:48.271Z,21.90
2022-10-17T12:39:45.049Z,22.00
2022-10-17T12:42:33.580Z,22.10
2022-10-17T12:45:01.866Z,22.20
2022-10-17T12:47:39.178Z,22.10
2022-10-17T12:50:40.946Z,21.90
2022-10-17T12:53:16.930Z,21.80
2022-10-17T12:55:51.804Z,21.90
2022-10-17T12:58:19.783Z,21.80
2022-10-17T13:01:11.851Z,21.80
2022-10-17T13:03:45.111Z,22.00
2022-10-17T13:06:18.554Z,22.30
2022-10-17T13:08:53.666Z,22.30
2022-10-17T13:11:28.318Z,22.10
2022-10-17T13:13:59.060Z,22.20
2022-10-17T13:16:31.612Z,22.20
2022-10-17T13:19:00.265Z,22.30
2022-10-17T13:21:28.890Z,22.40
2022-10-17T13:23:57.333Z,22.40
2022-10-17T13:26:28.444Z,22.30
2022-10-17T13:29:03.938Z,22.40
2022-10-17T13:31:34.129Z,22.40
2022-10-17T13:34:04.823Z,22.30
2022-10-17T13:36:34.096Z,22.30
2022-10-17T13:39:12.351Z,22.30
2022-10-17T13:41:43.119Z,22.20
2022-10-17T13:44:15.211Z,22.20
2022-10-17T13:46:44.067Z,22.20
2022-10-17T13:49:18.950Z,22.20
2022-10-17T13:51:49.142Z,22.10
2022-10-17T13:54:40.043Z,22.10
2022-10-17T13:57:19.742Z,22.20
2022-10-17T13:59:53.417Z,22.20
2022-10-17T14:02:23.487Z,22.10
2022-10-17T14:05:20.197Z,22.10
2022-10-17T14:10:43.233Z,22.10
2022-10-17T14:13:24.329Z,22.20
2022-10-17T14:15:53.938Z,22.10
2022-10-17T14:18:26.343Z,22.00
2022-10-17T14:21:33.984Z,21.90
2022-10-17T14:23:44.371Z,21.90
2022-10-17T14:26:18.011Z,22.00
2022-10-17T14:28:49.812Z,22.10
2022-10-17T14:31:29.974Z,22.10
2022-10-17T14:33:58.469Z,22.20
2022-10-17T14:36:39.493Z,22.40
2022-10-17T14:42:41.357Z,22.60
2022-10-17T14:45:18.139Z,22.70
2022-10-17T14:47:51.082Z,22.50
2022-10-17T14:50:24.227Z,22.40
2022-10-17T14:53:02.779Z,22.40
2022-10-17T14:55:32.587Z,22.50
2022-10-17T14:58:00.435Z,22.50
2022-10-17T15:00:29.815Z,22.50
2022-10-17T15:02:57.976Z,22.60
2022-10-17T15:05:26.007Z,22.50
2022-10-17T15:07:55.033Z,22.50
2022-10-17T15:10:32.895Z,22.20
2022-10-17T15:13:26.099Z,22.10
2022-10-17T15:15:52.293Z,21.90
2022-10-17T15:18:20.663Z,21.90
2022-10-17T15:20:55.250Z,21.70
2022-10-17T15:23:32.718Z,21.60
2022-10-17T15:26:00.685Z,21.50
2022-10-17T15:28:28.687Z,21.60
2022-10-17T15:30:57.973Z,21.60
2022-10-17T15:33:25.955Z,21.50
2022-10-17T15:35:53.942Z,21.40
2022-10-17T15:38:21.828Z,21.20
2022-10-17T15:40:51.936Z,21.10
2022-10-17T15:43:20.179Z,21.10
2022-10-17T15:45:48.383Z,21.10
2022-10-17T15:48:21.572Z,21.00
2022-10-17T15:50:49.459Z,20.80
2022-10-17T15:53:17.320Z,20.70
2022-10-17T15:55:45.269Z,20.50
2022-10-17T15:58:16.294Z,20.40
2022-10-17T16:00:44.568Z,20.20
2022-10-17T16:03:12.727Z,20.10
2022-10-17T16:05:41.994Z,20.00
2022-10-17T16:08:09.885Z,19.80
2022-10-17T16:10:41.615Z,19.70
2022-10-17T16:13:17.452Z,19.50
2022-10-17T16:15:46.678Z,19.40
2022-10-17T16:18:14.792Z,19.30
2022-10-17T16:20:44.050Z,19.10
2022-10-17T16:23:13.713Z,19.10
2022-10-17T16:25:42.087Z,19.00
2022-10-17T16:28:11.913Z,19.00
2022-10-17T16:30:45.995Z,18.90
2022-10-17T16:33:13.983Z,18.80
2022-10-17T16:35:43.301Z,18.90
2022-10-17T16:38:11.240Z,18.70
2022-10-17T16:40:40.202Z,18.60
2022-10-17T16:43:12.921Z,18.60
2022-10-17T16:45:44.095Z,18.40
2022-10-17T16:48:12.218Z,18.50
2022-10-17T16:50:41.018Z,18.50
2022-10-17T16:53:10.317Z,18.40
2022-10-17T16:55:38.959Z,18.30
2022-10-17T16:58:06.881Z,18.30
2022-10-17T17:00:34.869Z,18.30
2022-10-17T17:03:02.773Z,18.20
2022-10-17T17:05:30.877Z,18.20
2022-10-17T17:07:59.355Z,18.40
2022-10-17T17:10:28.622Z,18.40
2022-10-17T17:12:56.693Z,18.70
2022-10-17T17:15:24.572Z,18.70
2022-10-17T17:17:55.375Z,18.90
2022-10-17T17:20:23.782Z,18.80
2022-10-17T17:22:52.268Z,18.80
2022-10-17T17:25:20.181Z,18.70
2022-10-17T17:27:49.732Z,18.70
2022-10-17T17:30:18.612Z,18.70
2022-10-17T17:32:46.695Z,18.70
2022-10-17T17:35:14.648Z,18.70
2022-10-17T17:37:42.518Z,18.70
2022-10-17T17:40:11.481Z,18.60
2022-10-17T17:42:39.436Z,18.40
2022-10-17T17:45:10.146Z,18.40
2022-10-17T17:47:38.085Z,18.30
2022-10-17T17:50:06.693Z,18.10
2022-10-17T17:52:34.778Z,18.10
2022-10-17T17:55:02.875Z,17.90
2022-10-17T17:57:31.075Z,17.70
2022-10-17T17:59:59.165Z,17.80
2022-10-17T18:02:28.782Z,17.70
2022-10-17T18:04:56.893Z,17.80
2022-10-17T18:07:24.959Z,17.80
2022-10-17T18:09:52.903Z,17.90
2022-10-17T18:12:20.908Z,17.90
2022-10-17T18:14:49.036Z,17.90
2022-10-17T18:17:17.017Z,18.00
2022-10-17T18:19:46.332Z,18.00
2022-10-17T18:22:14.196Z,18.00
2022-10-17T18:24:42.397Z,18.00
2022-10-17T18:27:10.380Z,17.90
2022-10-17T18:29:40.661Z,17.90
2022-10-17T18:32:08.558Z,17.80
2022-10-17T18:34:36.643Z,17.80
2022-10-17T18:37:05.986Z,17.80
2022-10-17T18:39:33.978Z,17.90
2022-10-17T18:42:02.062Z,17.90
2022-10-17T18:44:30.078Z,17.80
2022-10-17T18:47:02.963Z,17.70
2022-10-17T18:49:32.280Z,17.70
2022-10-17T18:52:00.727Z,17.70
2022-10-17T18:54:32.189Z,17.70
2022-10-17T18:57:00.146Z,17.70
2022-10-17T18:59:28.650Z,17.50
2022-10-17T19:01:56.691Z,17.50
2022-10-17T19:04:25.012Z,17.40
2022-10-17T19:06:53.014Z,17.30
2022-10-17T19:09:21.077Z,17.20
2022-10-17T19:11:50.465Z,17.20
2022-10-17T19:14:18.481Z,17.20
2022-10-17T19:16:47.908Z,17.30
2022-10-17T19:19:17.975Z,17.40
2022-10-17T19:21:46.175Z,17.50
2022-10-17T19:24:16.597Z,17.50
2022-10-17T19:26:46.015Z,17.40
2022-10-17T19:29:16.873Z,17.50
2022-10-17T19:31:45.199Z,17.60
2022-10-17T19:34:14.247Z,17.50
2022-10-17T19:36:43.473Z,17.50
2022-10-17T19:39:14.107Z,17.40
2022-10-17T19:41:45.287Z,17.50
2022-10-17T19:44:25.858Z,17.40
2022-10-17T19:46:58.554Z,17.40
2022-10-17T19:49:26.979Z,17.30
2022-10-17T19:51:55.356Z,17.30
2022-10-17T19:54:23.660Z,17.30
2022-10-17T19:56:51.519Z,17.40
2022-10-17T19:59:19.763Z,17.40
2022-10-17T20:01:49.195Z,17.50
2022-10-17T20:04:19.696Z,17.50
2022-10-17T20:06:47.673Z,17.40
2022-10-17T20:09:17.248Z,17.50
2022-10-17T20:11:47.449Z,17.70
2022-10-17T20:14:15.635Z,17.60
2022-10-17T20:16:44.786Z,17.50
2022-10-17T20:19:14.705Z,17.50
2022-10-17T20:21:46.346Z,17.40
2022-10-17T20:24:16.947Z,17.40
2022-10-17T20:26:45.256Z,17.40
2022-10-17T20:29:16.641Z,17.30
2022-10-17T20:31:46.613Z,17.30
2022-10-17T20:34:18.169Z,17.30
2022-10-17T20:36:46.540Z,17.20
2022-10-17T20:39:17.047Z,17.20
2022-10-17T20:41:46.042Z,17.20
2022-10-17T20:44:14.598Z,17.20
2022-10-17T20:46:48.639Z,17.30
2022-10-17T20:49:27.438Z,17.30
2022-10-17T20:51:55.323Z,17.30
2022-10-17T20:54:23.280Z,17.30
2022-10-17T20:56:51.297Z,17.30
2022-10-17T20:59:19.426Z,17.30
2022-10-17T21:01:48.340Z,17.30
2022-10-17T21:04:44.108Z,17.30
2022-10-17T21:07:05.751Z,17.40
2022-10-17T21:09:35.115Z,17.30
2022-10-17T21:12:05.162Z,17.30
2022-10-17T21:14:33.960Z,17.30
2022-10-17T21:17:04.910Z,17.30
2022-10-17T21:19:33.111Z,17.20
2022-10-17T21:22:01.001Z,17.20
2022-10-17T21:24:30.404Z,17.30
2022-10-17T21:27:01.802Z,17.20
2022-10-17T21:29:30.024Z,17.30
2022-10-17T21:31:58.053Z,17.30
2022-10-17T21:34:33.232Z,17.20
2022-10-17T21:37:01.416Z,17.20
2022-10-17T21:39:30.813Z,17.20
2022-10-17T21:41:58.860Z,17.20
2022-10-17T21:44:28.030Z,17.30
2022-10-17T21:46:57.175Z,17.30
2022-10-17T21:49:27.629Z,17.30
2022-10-17T21:51:55.544Z,17.20
2022-10-17T21:54:24.380Z,17.10
2022-10-17T21:56:54.015Z,17.10
2022-10-17T21:59:21.869Z,17.10
2022-10-17T22:01:49.840Z,17.10
2022-10-17T22:04:19.240Z,17.10
2022-10-17T22:06:50.975Z,17.20
2022-10-17T22:09:21.053Z,17.20
2022-10-17T22:11:51.392Z,17.20
2022-10-17T22:14:22.209Z,17.20
2022-10-17T22:16:50.973Z,17.20
2022-10-17T22:19:22.066Z,17.20
2022-10-17T22:21:49.997Z,17.20
2022-10-17T22:26:52.977Z,17.30
2022-10-17T22:29:22.160Z,17.20
2022-10-17T22:31:50.121Z,17.30
2022-10-17T22:34:19.518Z,17.30
2022-10-17T22:36:48.843Z,17.40
2022-10-17T22:39:16.778Z,17.30
2022-10-17T22:41:44.732Z,17.20
2022-10-17T22:44:12.834Z,17.10
2022-10-17T22:46:42.106Z,17.10
2022-10-17T22:49:10.004Z,17.10
2022-10-17T22:51:40.950Z,17.10
2022-10-17T22:54:08.857Z,17.10
2022-10-17T22:56:36.758Z,17.10
2022-10-17T22:59:05.027Z,17.20
2022-10-17T23:01:33.036Z,17.10
2022-10-17T23:04:02.324Z,17.10
2022-10-17T23:06:30.187Z,17.00
2022-10-17T23:08:58.138Z,17.10
2022-10-17T23:11:26.128Z,17.00
2022-10-17T23:13:54.050Z,16.90
2022-10-17T23:16:22.124Z,17.00
2022-10-17T23:18:50.039Z,17.00
2022-10-17T23:21:19.530Z,17.00
2022-10-17T23:23:47.379Z,17.00
2022-10-17T23:26:16.146Z,17.00
2022-10-17T23:28:44.472Z,17.00
2022-10-17T23:31:14.782Z,17.00
2022-10-17T23:33:44.738Z,17.00
2022-10-17T23:36:13.726Z,17.10
2022-10-17T23:38:44.483Z,17.10
2022-10-17T23:41:13.062Z,17.10
2022-10-17T23:43:41.253Z,17.00
2022-10-17T23:46:09.225Z,16.90
2022-10-17T23:48:38.576Z,16.80
2022-10-17T23:51:07.189Z,16.70
2022-10-17T23:53:35.144Z,16.70
2022-10-17T23:56:05.165Z,16.60
2022-10-17T23:58:33.057Z,16.60
